sensor_id;sensor_type;location;lat;lon;timestamp;P1;durP1;ratioP1;P2;durP2;ratioP2
5987;SDS011;3021;51.000;6.980;2024-03-06T00:00:58;74.00;;;65.38;;
5987;SDS011;3021;51.000;6.980;2024-03-06T00:03:23;117.90;;;106.80;;
5987;SDS011;3021;51.000;6.980;2024-03-06T00:05:48;81.88;;;73.15;;
5987;SDS011;3021;51.000;6.980;2024-03-06T00:08:14;82.97;;;72.80;;
5987;SDS011;3021;51.000;6.980;2024-03-06T00:10:40;130.33;;;119.00;;
5987;SDS011;3021;51.000;6.980;2024-03-06T00:13:06;85.10;;;76.75;;
5987;SDS011;3021;51.000;6.980;2024-03-06T00:15:32;114.57;;;104.10;;
5987;SDS011;3021;51.000;6.980;2024-03-06T00:17:57;94.83;;;85.03;;
5987;SDS011;3021;51.000;6.980;2024-03-06T00:20:23;98.78;;;89.45;;
5987;SDS011;3021;51.000;6.980;2024-03-06T00:22:49;127.97;;;116.00;;
5987;SDS011;3021;51.000;6.980;2024-03-06T00:25:14;81.10;;;72.93;;
5987;SDS011;3021;51.000;6.980;2024-03-06T00:27:39;86.10;;;77.00;;
5987;SDS011;3021;51.000;6.980;2024-03-06T00:30:05;105.33;;;94.77;;
5987;SDS011;3021;51.000;6.980;2024-03-06T00:32:31;93.45;;;84.10;;
5987;SDS011;3021;51.000;6.980;2024-03-06T00:34:57;102.03;;;92.00;;
5987;SDS011;3021;51.000;6.980;2024-03-06T00:37:22;106.53;;;95.73;;
5987;SDS011;3021;51.000;6.980;2024-03-06T00:39:47;118.97;;;108.32;;
5987;SDS011;3021;51.000;6.980;2024-03-06T00:42:13;82.53;;;73.77;;
5987;SDS011;3021;51.000;6.980;2024-03-06T00:44:39;67.50;;;41.50;;
5987;SDS011;3021;51.000;6.980;2024-03-06T00:47:04;65.75;;;43.58;;
5987;SDS011;3021;51.000;6.980;2024-03-06T00:49:29;124.30;;;113.43;;
5987;SDS011;3021;51.000;6.980;2024-03-06T00:51:55;93.55;;;83.93;;
5987;SDS011;3021;51.000;6.980;2024-03-06T00:54:20;72.60;;;64.07;;
5987;SDS011;3021;51.000;6.980;2024-03-06T00:56:45;70.07;;;54.20;;
5987;SDS011;3021;51.000;6.980;2024-03-06T00:59:11;81.13;;;69.40;;
5987;SDS011;3021;51.000;6.980;2024-03-06T01:01:36;104.07;;;94.27;;
5987;SDS011;3021;51.000;6.980;2024-03-06T01:04:01;141.27;;;128.87;;
5987;SDS011;3021;51.000;6.980;2024-03-06T01:06:27;117.60;;;106.40;;
5987;SDS011;3021;51.000;6.980;2024-03-06T01:08:53;109.37;;;99.40;;
5987;SDS011;3021;51.000;6.980;2024-03-06T01:11:19;129.65;;;118.03;;
5987;SDS011;3021;51.000;6.980;2024-03-06T01:13:45;96.60;;;87.00;;
5987;SDS011;3021;51.000;6.980;2024-03-06T01:16:10;104.53;;;94.37;;
5987;SDS011;3021;51.000;6.980;2024-03-06T01:18:35;68.50;;;61.07;;
5987;SDS011;3021;51.000;6.980;2024-03-06T01:21:01;100.03;;;90.80;;
5987;SDS011;3021;51.000;6.980;2024-03-06T01:23:28;131.00;;;119.22;;
5987;SDS011;3021;51.000;6.980;2024-03-06T01:25:53;116.33;;;105.43;;
5987;SDS011;3021;51.000;6.980;2024-03-06T01:28:19;127.88;;;116.50;;
5987;SDS011;3021;51.000;6.980;2024-03-06T01:30:45;122.50;;;111.13;;
5987;SDS011;3021;51.000;6.980;2024-03-06T01:33:10;163.20;;;147.30;;
5987;SDS011;3021;51.000;6.980;2024-03-06T01:35:36;151.80;;;136.77;;
5987;SDS011;3021;51.000;6.980;2024-03-06T01:38:01;80.10;;;57.93;;
5987;SDS011;3021;51.000;6.980;2024-03-06T01:40:26;79.30;;;56.87;;
5987;SDS011;3021;51.000;6.980;2024-03-06T01:42:54;91.88;;;74.45;;
5987;SDS011;3021;51.000;6.980;2024-03-06T01:45:19;88.70;;;71.80;;
5987;SDS011;3021;51.000;6.980;2024-03-06T01:47:45;118.78;;;107.35;;
5987;SDS011;3021;51.000;6.980;2024-03-06T01:50:10;128.93;;;116.50;;
5987;SDS011;3021;51.000;6.980;2024-03-06T01:52:36;97.40;;;87.25;;
5987;SDS011;3021;51.000;6.980;2024-03-06T01:55:03;101.72;;;90.82;;
5987;SDS011;3021;51.000;6.980;2024-03-06T01:57:30;113.32;;;102.03;;
5987;SDS011;3021;51.000;6.980;2024-03-06T01:59:56;94.90;;;85.10;;
5987;SDS011;3021;51.000;6.980;2024-03-06T02:02:22;112.03;;;100.75;;
5987;SDS011;3021;51.000;6.980;2024-03-06T02:04:47;82.57;;;63.10;;
5987;SDS011;3021;51.000;6.980;2024-03-06T02:07:12;108.68;;;96.93;;
5987;SDS011;3021;51.000;6.980;2024-03-06T02:09:39;117.65;;;106.15;;
5987;SDS011;3021;51.000;6.980;2024-03-06T02:12:05;155.20;;;138.80;;
5987;SDS011;3021;51.000;6.980;2024-03-06T02:14:33;128.75;;;115.80;;
5987;SDS011;3021;51.000;6.980;2024-03-06T02:17:01;157.23;;;135.43;;
5987;SDS011;3021;51.000;6.980;2024-03-06T02:19:37;154.33;;;137.63;;
5987;SDS011;3021;51.000;6.980;2024-03-06T02:22:03;159.90;;;141.02;;
5987;SDS011;3021;51.000;6.980;2024-03-06T02:24:28;172.60;;;147.97;;
5987;SDS011;3021;51.000;6.980;2024-03-06T02:26:54;189.35;;;160.30;;
5987;SDS011;3021;51.000;6.980;2024-03-06T02:29:23;211.15;;;170.93;;
5987;SDS011;3021;51.000;6.980;2024-03-06T02:31:48;177.95;;;158.20;;
5987;SDS011;3021;51.000;6.980;2024-03-06T02:34:14;207.67;;;169.10;;
5987;SDS011;3021;51.000;6.980;2024-03-06T02:36:39;200.52;;;166.38;;
5987;SDS011;3021;51.000;6.980;2024-03-06T02:39:04;225.47;;;175.03;;
5987;SDS011;3021;51.000;6.980;2024-03-06T02:41:34;242.38;;;183.60;;
5987;SDS011;3021;51.000;6.980;2024-03-06T02:44:01;207.68;;;166.68;;
5987;SDS011;3021;51.000;6.980;2024-03-06T02:46:26;241.50;;;181.07;;
5987;SDS011;3021;51.000;6.980;2024-03-06T02:48:52;207.77;;;170.80;;
5987;SDS011;3021;51.000;6.980;2024-03-06T02:51:18;227.93;;;169.27;;
5987;SDS011;3021;51.000;6.980;2024-03-06T02:53:44;284.35;;;187.80;;
5987;SDS011;3021;51.000;6.980;2024-03-06T02:56:15;156.37;;;137.83;;
5987;SDS011;3021;51.000;6.980;2024-03-06T02:58:41;165.93;;;148.57;;
5987;SDS011;3021;51.000;6.980;2024-03-06T03:01:06;264.70;;;192.83;;
5987;SDS011;3021;51.000;6.980;2024-03-06T03:03:34;241.55;;;204.45;;
5987;SDS011;3021;51.000;6.980;2024-03-06T03:05:59;255.73;;;210.07;;
5987;SDS011;3021;51.000;6.980;2024-03-06T03:08:25;240.45;;;209.77;;
5987;SDS011;3021;51.000;6.980;2024-03-06T03:10:51;227.80;;;202.90;;
5987;SDS011;3021;51.000;6.980;2024-03-06T03:13:16;246.90;;;219.90;;
5987;SDS011;3021;51.000;6.980;2024-03-06T03:15:42;256.67;;;228.68;;
5987;SDS011;3021;51.000;6.980;2024-03-06T03:18:07;275.73;;;248.00;;
5987;SDS011;3021;51.000;6.980;2024-03-06T03:20:33;295.10;;;264.87;;
5987;SDS011;3021;51.000;6.980;2024-03-06T03:22:59;315.00;;;284.10;;
5987;SDS011;3021;51.000;6.980;2024-03-06T03:25:26;274.90;;;247.13;;
5987;SDS011;3021;51.000;6.980;2024-03-06T03:27:52;265.13;;;242.27;;
5987;SDS011;3021;51.000;6.980;2024-03-06T03:30:17;279.57;;;254.00;;
5987;SDS011;3021;51.000;6.980;2024-03-06T03:32:46;261.73;;;238.02;;
5987;SDS011;3021;51.000;6.980;2024-03-06T03:35:12;258.77;;;235.55;;
5987;SDS011;3021;51.000;6.980;2024-03-06T03:37:38;251.03;;;225.97;;
5987;SDS011;3021;51.000;6.980;2024-03-06T03:40:03;211.10;;;194.47;;
5987;SDS011;3021;51.000;6.980;2024-03-06T03:42:29;295.98;;;272.73;;
5987;SDS011;3021;51.000;6.980;2024-03-06T03:44:54;327.20;;;299.30;;
5987;SDS011;3021;51.000;6.980;2024-03-06T03:47:20;340.07;;;309.93;;
5987;SDS011;3021;51.000;6.980;2024-03-06T03:49:45;320.60;;;290.53;;
5987;SDS011;3021;51.000;6.980;2024-03-06T03:52:10;349.58;;;318.80;;
5987;SDS011;3021;51.000;6.980;2024-03-06T03:54:37;338.90;;;309.67;;
5987;SDS011;3021;51.000;6.980;2024-03-06T03:57:02;352.77;;;320.87;;
5987;SDS011;3021;51.000;6.980;2024-03-06T03:59:28;358.08;;;325.63;;
5987;SDS011;3021;51.000;6.980;2024-03-06T04:01:53;377.20;;;340.77;;
5987;SDS011;3021;51.000;6.980;2024-03-06T04:04:19;326.53;;;291.73;;
5987;SDS011;3021;51.000;6.980;2024-03-06T04:06:44;362.43;;;326.93;;
5987;SDS011;3021;51.000;6.980;2024-03-06T04:09:10;354.63;;;322.10;;
5987;SDS011;3021;51.000;6.980;2024-03-06T04:11:36;335.00;;;306.73;;
5987;SDS011;3021;51.000;6.980;2024-03-06T04:14:03;311.80;;;283.50;;
5987;SDS011;3021;51.000;6.980;2024-03-06T04:16:29;339.23;;;309.73;;
5987;SDS011;3021;51.000;6.980;2024-03-06T04:18:54;323.77;;;297.07;;
5987;SDS011;3021;51.000;6.980;2024-03-06T04:21:19;349.87;;;317.50;;
5987;SDS011;3021;51.000;6.980;2024-03-06T04:23:45;321.13;;;292.93;;
5987;SDS011;3021;51.000;6.980;2024-03-06T04:26:10;328.83;;;299.57;;
5987;SDS011;3021;51.000;6.980;2024-03-06T04:28:36;301.23;;;275.75;;
5987;SDS011;3021;51.000;6.980;2024-03-06T04:31:01;331.03;;;301.70;;
5987;SDS011;3021;51.000;6.980;2024-03-06T04:33:26;331.13;;;300.05;;
5987;SDS011;3021;51.000;6.980;2024-03-06T04:35:52;288.00;;;261.70;;
5987;SDS011;3021;51.000;6.980;2024-03-06T04:38:17;276.88;;;249.43;;
5987;SDS011;3021;51.000;6.980;2024-03-06T04:40:42;260.93;;;218.87;;
5987;SDS011;3021;51.000;6.980;2024-03-06T04:43:08;322.10;;;204.17;;
5987;SDS011;3021;51.000;6.980;2024-03-06T04:45:33;283.67;;;214.55;;
5987;SDS011;3021;51.000;6.980;2024-03-06T04:47:59;335.73;;;194.40;;
5987;SDS011;3021;51.000;6.980;2024-03-06T04:50:24;294.67;;;179.95;;
5987;SDS011;3021;51.000;6.980;2024-03-06T04:52:50;115.37;;;103.47;;
5987;SDS011;3021;51.000;6.980;2024-03-06T04:55:15;182.30;;;162.87;;
5987;SDS011;3021;51.000;6.980;2024-03-06T04:57:45;81.45;;;53.83;;
5987;SDS011;3021;51.000;6.980;2024-03-06T05:00:11;226.80;;;164.75;;
5987;SDS011;3021;51.000;6.980;2024-03-06T05:02:37;55.05;;;26.23;;
5987;SDS011;3021;51.000;6.980;2024-03-06T05:05:03;56.20;;;28.15;;
5987;SDS011;3021;51.000;6.980;2024-03-06T05:07:29;54.08;;;26.05;;
5987;SDS011;3021;51.000;6.980;2024-03-06T05:09:56;58.20;;;26.23;;
5987;SDS011;3021;51.000;6.980;2024-03-06T05:12:25;59.60;;;26.75;;
5987;SDS011;3021;51.000;6.980;2024-03-06T05:14:50;181.70;;;108.90;;
5987;SDS011;3021;51.000;6.980;2024-03-06T05:17:17;62.42;;;28.33;;
5987;SDS011;3021;51.000;6.980;2024-03-06T05:19:43;238.23;;;65.05;;
5987;SDS011;3021;51.000;6.980;2024-03-06T05:22:09;59.30;;;26.38;;
5987;SDS011;3021;51.000;6.980;2024-03-06T05:24:36;60.55;;;26.73;;
5987;SDS011;3021;51.000;6.980;2024-03-06T05:27:02;62.65;;;28.55;;
5987;SDS011;3021;51.000;6.980;2024-03-06T05:29:27;61.30;;;25.42;;
5987;SDS011;3021;51.000;6.980;2024-03-06T05:31:52;593.45;;;140.00;;
5987;SDS011;3021;51.000;6.980;2024-03-06T05:34:17;581.00;;;231.07;;
5987;SDS011;3021;51.000;6.980;2024-03-06T05:36:43;551.73;;;288.67;;
5987;SDS011;3021;51.000;6.980;2024-03-06T05:39:08;725.33;;;280.08;;
5987;SDS011;3021;51.000;6.980;2024-03-06T05:41:37;361.42;;;325.58;;
5987;SDS011;3021;51.000;6.980;2024-03-06T05:44:06;471.85;;;344.35;;
5987;SDS011;3021;51.000;6.980;2024-03-06T05:46:32;642.67;;;341.53;;
5987;SDS011;3021;51.000;6.980;2024-03-06T05:48:58;744.40;;;290.53;;
5987;SDS011;3021;51.000;6.980;2024-03-06T05:51:23;756.57;;;299.60;;
5987;SDS011;3021;51.000;6.980;2024-03-06T05:53:49;757.83;;;295.88;;
5987;SDS011;3021;51.000;6.980;2024-03-06T05:56:14;736.77;;;271.60;;
5987;SDS011;3021;51.000;6.980;2024-03-06T05:58:40;704.60;;;311.17;;
5987;SDS011;3021;51.000;6.980;2024-03-06T06:01:05;523.03;;;336.65;;
5987;SDS011;3021;51.000;6.980;2024-03-06T06:03:30;561.07;;;339.50;;
5987;SDS011;3021;51.000;6.980;2024-03-06T06:05:56;588.05;;;330.75;;
5987;SDS011;3021;51.000;6.980;2024-03-06T06:08:22;624.55;;;325.20;;
5987;SDS011;3021;51.000;6.980;2024-03-06T06:10:47;637.33;;;319.55;;
5987;SDS011;3021;51.000;6.980;2024-03-06T06:13:13;571.83;;;334.00;;
5987;SDS011;3021;51.000;6.980;2024-03-06T06:15:39;601.65;;;340.00;;
5987;SDS011;3021;51.000;6.980;2024-03-06T06:18:05;432.63;;;343.57;;
5987;SDS011;3021;51.000;6.980;2024-03-06T06:20:30;623.90;;;324.95;;
5987;SDS011;3021;51.000;6.980;2024-03-06T06:22:56;521.93;;;351.27;;
5987;SDS011;3021;51.000;6.980;2024-03-06T06:25:21;414.27;;;341.73;;
5987;SDS011;3021;51.000;6.980;2024-03-06T06:27:47;461.42;;;354.92;;
5987;SDS011;3021;51.000;6.980;2024-03-06T06:30:14;396.77;;;344.67;;
5987;SDS011;3021;51.000;6.980;2024-03-06T06:32:40;368.63;;;334.67;;
5987;SDS011;3021;51.000;6.980;2024-03-06T06:35:06;372.08;;;338.88;;
5987;SDS011;3021;51.000;6.980;2024-03-06T06:37:33;360.35;;;330.50;;
5987;SDS011;3021;51.000;6.980;2024-03-06T06:39:59;387.48;;;348.63;;
5987;SDS011;3021;51.000;6.980;2024-03-06T06:42:24;389.92;;;349.95;;
5987;SDS011;3021;51.000;6.980;2024-03-06T06:44:50;395.98;;;347.33;;
5987;SDS011;3021;51.000;6.980;2024-03-06T06:47:16;382.95;;;345.15;;
5987;SDS011;3021;51.000;6.980;2024-03-06T06:49:42;376.30;;;340.23;;
5987;SDS011;3021;51.000;6.980;2024-03-06T06:52:07;381.23;;;344.20;;
5987;SDS011;3021;51.000;6.980;2024-03-06T06:54:33;388.57;;;348.60;;
5987;SDS011;3021;51.000;6.980;2024-03-06T06:56:58;349.43;;;321.20;;
5987;SDS011;3021;51.000;6.980;2024-03-06T06:59:23;362.93;;;332.20;;
5987;SDS011;3021;51.000;6.980;2024-03-06T07:01:49;361.50;;;331.25;;
5987;SDS011;3021;51.000;6.980;2024-03-06T07:04:14;316.57;;;293.77;;
5987;SDS011;3021;51.000;6.980;2024-03-06T07:06:44;224.40;;;210.33;;
5987;SDS011;3021;51.000;6.980;2024-03-06T07:09:11;199.57;;;187.20;;
5987;SDS011;3021;51.000;6.980;2024-03-06T07:11:37;171.93;;;160.32;;
5987;SDS011;3021;51.000;6.980;2024-03-06T07:14:02;277.67;;;259.50;;
5987;SDS011;3021;51.000;6.980;2024-03-06T07:16:27;210.50;;;197.90;;
5987;SDS011;3021;51.000;6.980;2024-03-06T07:18:52;448.23;;;337.83;;
5987;SDS011;3021;51.000;6.980;2024-03-06T07:21:18;556.67;;;392.97;;
5987;SDS011;3021;51.000;6.980;2024-03-06T07:23:43;609.67;;;370.48;;
5987;SDS011;3021;51.000;6.980;2024-03-06T07:26:09;583.43;;;387.13;;
5987;SDS011;3021;51.000;6.980;2024-03-06T07:28:35;432.07;;;385.80;;
5987;SDS011;3021;51.000;6.980;2024-03-06T07:31:00;451.27;;;374.23;;
5987;SDS011;3021;51.000;6.980;2024-03-06T07:33:26;431.17;;;378.70;;
5987;SDS011;3021;51.000;6.980;2024-03-06T07:35:51;453.07;;;395.03;;
5987;SDS011;3021;51.000;6.980;2024-03-06T07:38:16;532.20;;;385.93;;
5987;SDS011;3021;51.000;6.980;2024-03-06T07:40:42;491.17;;;389.67;;
5987;SDS011;3021;51.000;6.980;2024-03-06T07:43:07;449.70;;;382.00;;
5987;SDS011;3021;51.000;6.980;2024-03-06T07:45:33;490.03;;;374.23;;
5987;SDS011;3021;51.000;6.980;2024-03-06T08:00:05;636.15;;;154.45;;
5987;SDS011;3021;51.000;6.980;2024-03-06T09:18:04;708.10;;;364.80;;
5987;SDS011;3021;51.000;6.980;2024-03-06T09:20:29;705.23;;;374.20;;
5987;SDS011;3021;51.000;6.980;2024-03-06T09:22:55;720.05;;;494.27;;
5987;SDS011;3021;51.000;6.980;2024-03-06T09:25:21;765.93;;;635.17;;
5987;SDS011;3021;51.000;6.980;2024-03-06T09:27:47;772.10;;;565.77;;
5987;SDS011;3021;51.000;6.980;2024-03-06T14:06:52;776.10;;;545.45;;
5987;SDS011;3021;51.000;6.980;2024-03-06T14:09:18;763.33;;;515.10;;
5987;SDS011;3021;51.000;6.980;2024-03-06T14:11:43;778.30;;;550.97;;
5987;SDS011;3021;51.000;6.980;2024-03-06T14:14:09;779.65;;;560.10;;
5987;SDS011;3021;51.000;6.980;2024-03-06T14:16:36;784.20;;;575.65;;
5987;SDS011;3021;51.000;6.980;2024-03-06T14:19:01;782.60;;;569.80;;
5987;SDS011;3021;51.000;6.980;2024-03-06T14:21:29;778.88;;;558.40;;
5987;SDS011;3021;51.000;6.980;2024-03-06T14:23:55;781.27;;;570.37;;
5987;SDS011;3021;51.000;6.980;2024-03-06T14:26:20;778.77;;;568.17;;
5987;SDS011;3021;51.000;6.980;2024-03-06T14:28:45;771.17;;;548.27;;
5987;SDS011;3021;51.000;6.980;2024-03-06T14:31:10;762.87;;;520.20;;
5987;SDS011;3021;51.000;6.980;2024-03-06T14:33:39;748.92;;;486.65;;
5987;SDS011;3021;51.000;6.980;2024-03-06T14:36:06;755.90;;;509.75;;
5987;SDS011;3021;51.000;6.980;2024-03-06T14:38:31;772.77;;;554.20;;
5987;SDS011;3021;51.000;6.980;2024-03-06T14:40:57;764.05;;;532.55;;
5987;SDS011;3021;51.000;6.980;2024-03-06T14:43:24;756.88;;;511.75;;
5987;SDS011;3021;51.000;6.980;2024-03-06T19:24:20;9.15;;;4.13;;
5987;SDS011;3021;51.000;6.980;2024-03-06T19:26:46;7.10;;;4.00;;
5987;SDS011;3021;51.000;6.980;2024-03-06T19:29:11;5.78;;;3.53;;
5987;SDS011;3021;51.000;6.980;2024-03-06T19:31:37;10.18;;;4.57;;
5987;SDS011;3021;51.000;6.980;2024-03-06T19:34:02;9.27;;;4.13;;
5987;SDS011;3021;51.000;6.980;2024-03-06T19:36:28;7.00;;;3.97;;
5987;SDS011;3021;51.000;6.980;2024-03-06T19:38:54;6.78;;;3.70;;
5987;SDS011;3021;51.000;6.980;2024-03-06T19:41:19;6.05;;;3.63;;
5987;SDS011;3021;51.000;6.980;2024-03-06T19:43:44;6.18;;;3.80;;
5987;SDS011;3021;51.000;6.980;2024-03-06T19:46:10;5.75;;;3.45;;
5987;SDS011;3021;51.000;6.980;2024-03-06T19:48:36;5.30;;;3.33;;
5987;SDS011;3021;51.000;6.980;2024-03-06T19:51:03;5.43;;;3.30;;
5987;SDS011;3021;51.000;6.980;2024-03-06T19:53:29;5.45;;;3.67;;
5987;SDS011;3021;51.000;6.980;2024-03-06T19:55:56;7.63;;;4.03;;
5987;SDS011;3021;51.000;6.980;2024-03-06T19:58:22;6.55;;;3.50;;
5987;SDS011;3021;51.000;6.980;2024-03-06T20:00:47;6.75;;;3.80;;
5987;SDS011;3021;51.000;6.980;2024-03-06T20:03:13;6.63;;;3.42;;
5987;SDS011;3021;51.000;6.980;2024-03-06T20:05:38;6.10;;;3.70;;
5987;SDS011;3021;51.000;6.980;2024-03-06T20:08:04;7.18;;;3.95;;
5987;SDS011;3021;51.000;6.980;2024-03-06T20:10:30;3.55;;;3.10;;
5987;SDS011;3021;51.000;6.980;2024-03-06T20:12:55;7.43;;;3.83;;
5987;SDS011;3021;51.000;6.980;2024-03-06T20:15:24;5.82;;;3.50;;
5987;SDS011;3021;51.000;6.980;2024-03-06T20:17:49;6.00;;;3.60;;
5987;SDS011;3021;51.000;6.980;2024-03-06T20:20:14;7.10;;;3.70;;
5987;SDS011;3021;51.000;6.980;2024-03-06T20:22:40;5.00;;;3.40;;
5987;SDS011;3021;51.000;6.980;2024-03-06T20:25:05;7.68;;;3.85;;
5987;SDS011;3021;51.000;6.980;2024-03-06T20:27:31;6.68;;;3.78;;
5987;SDS011;3021;51.000;6.980;2024-03-06T20:29:57;7.25;;;3.80;;
5987;SDS011;3021;51.000;6.980;2024-03-06T20:32:23;6.43;;;3.67;;
5987;SDS011;3021;51.000;6.980;2024-03-06T20:34:48;6.38;;;3.50;;
5987;SDS011;3021;51.000;6.980;2024-03-06T20:37:14;4.97;;;3.28;;
5987;SDS011;3021;51.000;6.980;2024-03-06T20:39:39;5.10;;;3.30;;
5987;SDS011;3021;51.000;6.980;2024-03-06T20:42:05;8.02;;;3.97;;
5987;SDS011;3021;51.000;6.980;2024-03-06T20:44:34;6.40;;;3.78;;
5987;SDS011;3021;51.000;6.980;2024-03-06T20:47:00;7.43;;;4.05;;
5987;SDS011;3021;51.000;6.980;2024-03-06T20:49:26;5.85;;;3.42;;
5987;SDS011;3021;51.000;6.980;2024-03-06T20:51:51;6.07;;;3.75;;
5987;SDS011;3021;51.000;6.980;2024-03-06T20:54:17;6.03;;;3.63;;
5987;SDS011;3021;51.000;6.980;2024-03-06T20:56:42;6.57;;;3.55;;
5987;SDS011;3021;51.000;6.980;2024-03-06T20:59:08;6.25;;;3.65;;
5987;SDS011;3021;51.000;6.980;2024-03-06T21:01:35;6.10;;;3.63;;
5987;SDS011;3021;51.000;6.980;2024-03-06T21:04:01;14.70;;;5.20;;
5987;SDS011;3021;51.000;6.980;2024-03-06T21:06:26;6.72;;;3.67;;
5987;SDS011;3021;51.000;6.980;2024-03-06T21:08:51;6.95;;;3.80;;
5987;SDS011;3021;51.000;6.980;2024-03-06T21:11:17;6.70;;;3.63;;
5987;SDS011;3021;51.000;6.980;2024-03-06T21:13:43;7.70;;;3.78;;
5987;SDS011;3021;51.000;6.980;2024-03-06T21:16:09;6.07;;;3.58;;
5987;SDS011;3021;51.000;6.980;2024-03-06T21:18:34;7.40;;;3.97;;
5987;SDS011;3021;51.000;6.980;2024-03-06T21:21:00;7.60;;;3.95;;
5987;SDS011;3021;51.000;6.980;2024-03-06T21:23:26;6.35;;;3.55;;
5987;SDS011;3021;51.000;6.980;2024-03-06T21:25:51;7.18;;;3.80;;
5987;SDS011;3021;51.000;6.980;2024-03-06T21:28:17;6.85;;;3.72;;
5987;SDS011;3021;51.000;6.980;2024-03-06T21:30:42;6.40;;;3.58;;
5987;SDS011;3021;51.000;6.980;2024-03-06T21:33:08;6.15;;;3.55;;
5987;SDS011;3021;51.000;6.980;2024-03-06T21:35:37;7.07;;;3.95;;
5987;SDS011;3021;51.000;6.980;2024-03-06T21:38:03;7.55;;;3.90;;
5987;SDS011;3021;51.000;6.980;2024-03-06T21:40:28;6.63;;;3.58;;
5987;SDS011;3021;51.000;6.980;2024-03-06T21:42:54;7.18;;;3.65;;
5987;SDS011;3021;51.000;6.980;2024-03-06T21:45:19;3.30;;;3.00;;
5987;SDS011;3021;51.000;6.980;2024-03-06T21:47:45;8.38;;;4.18;;
5987;SDS011;3021;51.000;6.980;2024-03-06T21:50:10;6.35;;;3.45;;
5987;SDS011;3021;51.000;6.980;2024-03-06T21:52:37;6.90;;;3.60;;
5987;SDS011;3021;51.000;6.980;2024-03-06T21:55:03;4.93;;;3.53;;
5987;SDS011;3021;51.000;6.980;2024-03-06T21:57:29;5.88;;;3.60;;
5987;SDS011;3021;51.000;6.980;2024-03-06T21:59:54;7.20;;;3.67;;
5987;SDS011;3021;51.000;6.980;2024-03-06T22:02:20;4.10;;;3.38;;
5987;SDS011;3021;51.000;6.980;2024-03-06T22:04:46;5.40;;;3.40;;
5987;SDS011;3021;51.000;6.980;2024-03-06T22:07:11;5.82;;;3.80;;
5987;SDS011;3021;51.000;6.980;2024-03-06T22:09:37;5.75;;;3.40;;
5987;SDS011;3021;51.000;6.980;2024-03-06T22:12:02;5.35;;;3.40;;
5987;SDS011;3021;51.000;6.980;2024-03-06T22:14:28;6.55;;;3.65;;
5987;SDS011;3021;51.000;6.980;2024-03-06T22:16:55;8.43;;;3.83;;
5987;SDS011;3021;51.000;6.980;2024-03-06T22:19:20;6.70;;;3.70;;
5987;SDS011;3021;51.000;6.980;2024-03-06T22:21:47;7.70;;;3.97;;
5987;SDS011;3021;51.000;6.980;2024-03-06T22:24:15;7.45;;;3.88;;
5987;SDS011;3021;51.000;6.980;2024-03-06T22:26:41;7.20;;;3.72;;
5987;SDS011;3021;51.000;6.980;2024-03-06T22:29:07;6.65;;;3.63;;
5987;SDS011;3021;51.000;6.980;2024-03-06T22:31:35;6.93;;;3.70;;
5987;SDS011;3021;51.000;6.980;2024-03-06T22:34:04;12.55;;;4.63;;
5987;SDS011;3021;51.000;6.980;2024-03-06T22:36:31;7.68;;;3.80;;
5987;SDS011;3021;51.000;6.980;2024-03-06T22:38:57;6.60;;;3.55;;
5987;SDS011;3021;51.000;6.980;2024-03-06T22:41:22;4.35;;;3.25;;
5987;SDS011;3021;51.000;6.980;2024-03-06T22:43:49;6.60;;;3.88;;
5987;SDS011;3021;51.000;6.980;2024-03-06T22:46:15;7.00;;;3.78;;
5987;SDS011;3021;51.000;6.980;2024-03-06T22:48:41;6.53;;;3.67;;
5987;SDS011;3021;51.000;6.980;2024-03-06T22:51:07;5.10;;;3.55;;
5987;SDS011;3021;51.000;6.980;2024-03-06T22:53:33;3.50;;;3.20;;
5987;SDS011;3021;51.000;6.980;2024-03-06T22:55:58;4.85;;;3.38;;
5987;SDS011;3021;51.000;6.980;2024-03-06T22:58:24;6.70;;;3.63;;
5987;SDS011;3021;51.000;6.980;2024-03-06T23:00:49;6.25;;;3.50;;
5987;SDS011;3021;51.000;6.980;2024-03-06T23:03:15;7.10;;;3.88;;
5987;SDS011;3021;51.000;6.980;2024-03-06T23:05:44;7.10;;;3.72;;
5987;SDS011;3021;51.000;6.980;2024-03-06T23:08:10;6.72;;;3.95;;
5987;SDS011;3021;51.000;6.980;2024-03-06T23:10:38;6.10;;;3.50;;
5987;SDS011;3021;51.000;6.980;2024-03-06T23:13:08;8.00;;;4.00;;
5987;SDS011;3021;51.000;6.980;2024-03-06T23:15:33;5.97;;;3.40;;
5987;SDS011;3021;51.000;6.980;2024-03-06T23:17:59;5.82;;;3.50;;
5987;SDS011;3021;51.000;6.980;2024-03-06T23:20:24;3.88;;;3.22;;
5987;SDS011;3021;51.000;6.980;2024-03-06T23:22:50;7.07;;;3.85;;
5987;SDS011;3021;51.000;6.980;2024-03-06T23:25:16;5.70;;;3.60;;
5987;SDS011;3021;51.000;6.980;2024-03-06T23:27:42;3.22;;;3.03;;
5987;SDS011;3021;51.000;6.980;2024-03-06T23:32:38;6.70;;;3.72;;
5987;SDS011;3021;51.000;6.980;2024-03-06T23:35:04;8.32;;;4.10;;
5987;SDS011;3021;51.000;6.980;2024-03-06T23:37:31;5.63;;;3.40;;
5987;SDS011;3021;51.000;6.980;2024-03-06T23:40:01;6.43;;;3.60;;
5987;SDS011;3021;51.000;6.980;2024-03-06T23:42:29;3.40;;;3.10;;
5987;SDS011;3021;51.000;6.980;2024-03-06T23:44:56;8.90;;;3.97;;
5987;SDS011;3021;51.000;6.980;2024-03-06T23:47:21;7.90;;;3.90;;
5987;SDS011;3021;51.000;6.980;2024-03-06T23:49:46;5.63;;;3.40;;
5987;SDS011;3021;51.000;6.980;2024-03-06T23:52:12;6.30;;;3.70;;
5987;SDS011;3021;51.000;6.980;2024-03-06T23:54:40;6.63;;;3.75;;
5987;SDS011;3021;51.000;6.980;2024-03-06T23:57:06;7.75;;;4.00;;
5987;SDS011;3021;51.000;6.980;2024-03-06T23:59:31;7.07;;;4.00;;
